sensor_id;sensor_type;location;lat;lon;timestamp;temperature;humidity
40153;DHT22;26371;56.992;23.912;2023-05-19T00:02:12;9.00;99.90
40153;DHT22;26371;56.992;23.912;2023-05-19T00:04:41;9.00;99.90
40153;DHT22;26371;56.992;23.912;2023-05-19T00:07:10;9.00;99.90
40153;DHT22;26371;56.992;23.912;2023-05-19T00:09:43;9.00;99.90
40153;DHT22;26371;56.992;23.912;2023-05-19T00:12:16;9.00;99.90
40153;DHT22;26371;56.992;23.912;2023-05-19T00:14:45;9.00;99.90
40153;DHT22;26371;56.992;23.912;2023-05-19T00:17:26;9.00;99.90
40153;DHT22;26371;56.992;23.912;2023-05-19T00:19:57;9.00;99.90
40153;DHT22;26371;56.992;23.912;2023-05-19T00:22:25;8.90;99.90
40153;DHT22;26371;56.992;23.912;2023-05-19T00:24:55;8.90;99.90
40153;DHT22;26371;56.992;23.912;2023-05-19T00:27:25;9.00;99.90
40153;DHT22;26371;56.992;23.912;2023-05-19T00:29:53;9.00;99.90
40153;DHT22;26371;56.992;23.912;2023-05-19T00:32:22;9.00;99.90
40153;DHT22;26371;56.992;23.912;2023-05-19T00:34:52;9.00;99.90
40153;DHT22;26371;56.992;23.912;2023-05-19T00:37:20;9.00;99.90
40153;DHT22;26371;56.992;23.912;2023-05-19T00:39:49;9.00;99.90
40153;DHT22;26371;56.992;23.912;2023-05-19T00:42:17;8.90;99.90
40153;DHT22;26371;56.992;23.912;2023-05-19T00:44:47;8.90;99.90
40153;DHT22;26371;56.992;23.912;2023-05-19T00:47:15;8.80;99.90
40153;DHT22;26371;56.992;23.912;2023-05-19T00:49:43;8.80;99.90
40153;DHT22;26371;56.992;23.912;2023-05-19T00:52:13;8.70;99.90
40153;DHT22;26371;56.992;23.912;2023-05-19T00:54:42;8.60;99.90
40153;DHT22;26371;56.992;23.912;2023-05-19T00:57:12;8.60;99.90
40153;DHT22;26371;56.992;23.912;2023-05-19T00:59:40;8.50;99.90
40153;DHT22;26371;56.992;23.912;2023-05-19T01:02:08;8.40;99.90
40153;DHT22;26371;56.992;23.912;2023-05-19T01:04:37;8.40;99.90
40153;DHT22;26371;56.992;23.912;2023-05-19T01:07:07;8.30;99.90
40153;DHT22;26371;56.992;23.912;2023-05-19T01:09:37;8.30;99.90
40153;DHT22;26371;56.992;23.912;2023-05-19T01:12:07;8.20;99.90
40153;DHT22;26371;56.992;23.912;2023-05-19T01:14:36;8.20;99.90
40153;DHT22;26371;56.992;23.912;2023-05-19T01:17:06;8.10;99.90
40153;DHT22;26371;56.992;23.912;2023-05-19T01:19:44;8.00;99.90
40153;DHT22;26371;56.992;23.912;2023-05-19T01:22:22;8.00;99.90
40153;DHT22;26371;56.992;23.912;2023-05-19T01:27:55;7.80;99.90
40153;DHT22;26371;56.992;23.912;2023-05-19T01:30:29;7.70;99.90
40153;DHT22;26371;56.992;23.912;2023-05-19T01:32:59;7.70;99.90
40153;DHT22;26371;56.992;23.912;2023-05-19T01:35:28;7.60;99.90
40153;DHT22;26371;56.992;23.912;2023-05-19T01:37:59;7.60;99.90
40153;DHT22;26371;56.992;23.912;2023-05-19T01:40:28;7.50;99.90
40153;DHT22;26371;56.992;23.912;2023-05-19T01:42:57;7.50;99.90
40153;DHT22;26371;56.992;23.912;2023-05-19T01:45:27;7.50;99.90
40153;DHT22;26371;56.992;23.912;2023-05-19T01:47:58;7.40;99.90
40153;DHT22;26371;56.992;23.912;2023-05-19T01:50:27;7.30;99.90
40153;DHT22;26371;56.992;23.912;2023-05-19T01:52:56;7.30;99.90
40153;DHT22;26371;56.992;23.912;2023-05-19T01:55:24;7.20;99.90
40153;DHT22;26371;56.992;23.912;2023-05-19T01:57:55;7.20;99.90
40153;DHT22;26371;56.992;23.912;2023-05-19T02:00:30;7.10;99.90
40153;DHT22;26371;56.992;23.912;2023-05-19T02:03:06;7.10;99.90
40153;DHT22;26371;56.992;23.912;2023-05-19T02:05:39;7.00;99.90
40153;DHT22;26371;56.992;23.912;2023-05-19T02:08:13;7.00;99.90
40153;DHT22;26371;56.992;23.912;2023-05-19T02:10:44;7.00;99.90
40153;DHT22;26371;56.992;23.912;2023-05-19T02:13:17;6.90;99.90
40153;DHT22;26371;56.992;23.912;2023-05-19T02:15:47;6.90;99.90
40153;DHT22;26371;56.992;23.912;2023-05-19T02:18:17;7.00;99.90
40153;DHT22;26371;56.992;23.912;2023-05-19T02:20:49;7.00;99.90
40153;DHT22;26371;56.992;23.912;2023-05-19T02:23:18;7.00;99.90
40153;DHT22;26371;56.992;23.912;2023-05-19T02:25:46;7.00;99.90
40153;DHT22;26371;56.992;23.912;2023-05-19T02:28:14;7.00;99.90
40153;DHT22;26371;56.992;23.912;2023-05-19T02:30:43;7.00;99.90
40153;DHT22;26371;56.992;23.912;2023-05-19T02:33:11;7.00;99.90
40153;DHT22;26371;56.992;23.912;2023-05-19T02:35:43;7.00;99.90
40153;DHT22;26371;56.992;23.912;2023-05-19T02:38:13;7.10;99.90
40153;DHT22;26371;56.992;23.912;2023-05-19T02:40:42;7.10;99.90
40153;DHT22;26371;56.992;23.912;2023-05-19T02:43:10;7.10;99.90
40153;DHT22;26371;56.992;23.912;2023-05-19T02:45:39;7.00;99.90
40153;DHT22;26371;56.992;23.912;2023-05-19T02:48:07;7.10;99.90
40153;DHT22;26371;56.992;23.912;2023-05-19T02:50:36;7.10;99.90
40153;DHT22;26371;56.992;23.912;2023-05-19T02:53:06;7.10;99.90
40153;DHT22;26371;56.992;23.912;2023-05-19T02:55:35;7.10;99.90
40153;DHT22;26371;56.992;23.912;2023-05-19T02:58:04;7.10;99.90
40153;DHT22;26371;56.992;23.912;2023-05-19T03:00:32;7.10;99.90
40153;DHT22;26371;56.992;23.912;2023-05-19T03:03:01;7.10;99.90
40153;DHT22;26371;56.992;23.912;2023-05-19T03:05:30;7.00;99.90
40153;DHT22;26371;56.992;23.912;2023-05-19T03:08:01;7.00;99.90
40153;DHT22;26371;56.992;23.912;2023-05-19T03:10:30;7.00;99.90
40153;DHT22;26371;56.992;23.912;2023-05-19T03:12:59;6.90;99.90
40153;DHT22;26371;56.992;23.912;2023-05-19T03:15:28;7.00;99.90
40153;DHT22;26371;56.992;23.912;2023-05-19T03:17:56;7.00;99.90
40153;DHT22;26371;56.992;23.912;2023-05-19T03:20:25;7.00;99.90
40153;DHT22;26371;56.992;23.912;2023-05-19T03:22:53;7.00;99.90
40153;DHT22;26371;56.992;23.912;2023-05-19T03:25:22;7.10;99.90
40153;DHT22;26371;56.992;23.912;2023-05-19T03:27:53;7.10;99.90
40153;DHT22;26371;56.992;23.912;2023-05-19T03:30:21;7.10;99.90
40153;DHT22;26371;56.992;23.912;2023-05-19T03:33:02;7.20;99.90
40153;DHT22;26371;56.992;23.912;2023-05-19T03:35:31;7.30;99.90
40153;DHT22;26371;56.992;23.912;2023-05-19T03:37:59;7.40;99.90
40153;DHT22;26371;56.992;23.912;2023-05-19T03:40:29;7.50;99.90
40153;DHT22;26371;56.992;23.912;2023-05-19T03:43:06;7.60;99.90
40153;DHT22;26371;56.992;23.912;2023-05-19T03:45:42;7.70;99.90
40153;DHT22;26371;56.992;23.912;2023-05-19T03:48:30;7.90;99.90
40153;DHT22;26371;56.992;23.912;2023-05-19T03:51:19;8.00;99.90
40153;DHT22;26371;56.992;23.912;2023-05-19T03:53:50;8.20;99.90
40153;DHT22;26371;56.992;23.912;2023-05-19T03:56:18;8.30;99.90
40153;DHT22;26371;56.992;23.912;2023-05-19T03:58:52;8.50;99.90
40153;DHT22;26371;56.992;23.912;2023-05-19T04:01:21;8.60;99.90
40153;DHT22;26371;56.992;23.912;2023-05-19T04:03:49;8.70;99.90
40153;DHT22;26371;56.992;23.912;2023-05-19T04:06:18;8.80;99.90
40153;DHT22;26371;56.992;23.912;2023-05-19T04:08:46;8.80;99.90
40153;DHT22;26371;56.992;23.912;2023-05-19T04:11:14;8.80;99.90
40153;DHT22;26371;56.992;23.912;2023-05-19T04:13:43;8.80;99.90
40153;DHT22;26371;56.992;23.912;2023-05-19T04:16:13;8.90;99.90
40153;DHT22;26371;56.992;23.912;2023-05-19T04:23:42;9.00;99.90
40153;DHT22;26371;56.992;23.912;2023-05-19T04:36:14;9.40;99.90
40153;DHT22;26371;56.992;23.912;2023-05-19T04:38:49;9.50;99.90
40153;DHT22;26371;56.992;23.912;2023-05-19T04:41:24;9.50;99.90
40153;DHT22;26371;56.992;23.912;2023-05-19T04:43:53;9.50;99.90
40153;DHT22;26371;56.992;23.912;2023-05-19T04:46:23;9.50;99.90
40153;DHT22;26371;56.992;23.912;2023-05-19T04:48:54;9.50;99.90
40153;DHT22;26371;56.992;23.912;2023-05-19T04:51:24;9.60;99.90
40153;DHT22;26371;56.992;23.912;2023-05-19T04:53:59;9.60;99.90
40153;DHT22;26371;56.992;23.912;2023-05-19T04:56:28;9.60;99.90
40153;DHT22;26371;56.992;23.912;2023-05-19T05:01:27;10.80;99.90
40153;DHT22;26371;56.992;23.912;2023-05-19T05:03:57;9.50;99.90
40153;DHT22;26371;56.992;23.912;2023-05-19T05:06:30;9.60;99.90
40153;DHT22;26371;56.992;23.912;2023-05-19T05:08:59;9.60;99.90
40153;DHT22;26371;56.992;23.912;2023-05-19T05:11:29;9.60;99.90
40153;DHT22;26371;56.992;23.912;2023-05-19T05:14:01;9.60;99.90
40153;DHT22;26371;56.992;23.912;2023-05-19T05:16:30;9.70;99.90
40153;DHT22;26371;56.992;23.912;2023-05-19T05:18:59;9.70;99.90
40153;DHT22;26371;56.992;23.912;2023-05-19T05:21:28;9.80;99.90
40153;DHT22;26371;56.992;23.912;2023-05-19T05:24:00;9.80;99.90
40153;DHT22;26371;56.992;23.912;2023-05-19T05:26:32;9.90;99.90
40153;DHT22;26371;56.992;23.912;2023-05-19T05:29:00;10.00;99.90
40153;DHT22;26371;56.992;23.912;2023-05-19T05:31:29;10.00;99.90
40153;DHT22;26371;56.992;23.912;2023-05-19T05:33:58;10.10;99.90
40153;DHT22;26371;56.992;23.912;2023-05-19T05:36:29;10.10;99.90
40153;DHT22;26371;56.992;23.912;2023-05-19T05:39:02;10.20;99.90
40153;DHT22;26371;56.992;23.912;2023-05-19T05:41:31;10.30;99.90
40153;DHT22;26371;56.992;23.912;2023-05-19T05:44:08;10.30;99.90
40153;DHT22;26371;56.992;23.912;2023-05-19T05:46:39;10.30;99.90
40153;DHT22;26371;56.992;23.912;2023-05-19T05:49:08;10.40;99.90
40153;DHT22;26371;56.992;23.912;2023-05-19T05:51:41;10.40;99.90
40153;DHT22;26371;56.992;23.912;2023-05-19T05:54:34;10.40;99.90
40153;DHT22;26371;56.992;23.912;2023-05-19T05:57:03;10.50;99.90
40153;DHT22;26371;56.992;23.912;2023-05-19T05:59:31;10.40;99.90
40153;DHT22;26371;56.992;23.912;2023-05-19T06:02:00;10.50;99.90
40153;DHT22;26371;56.992;23.912;2023-05-19T06:04:29;10.50;99.90
40153;DHT22;26371;56.992;23.912;2023-05-19T06:06:58;10.50;99.90
40153;DHT22;26371;56.992;23.912;2023-05-19T06:09:34;10.50;99.90
40153;DHT22;26371;56.992;23.912;2023-05-19T06:12:04;10.60;99.90
40153;DHT22;26371;56.992;23.912;2023-05-19T06:14:38;10.60;99.90
40153;DHT22;26371;56.992;23.912;2023-05-19T06:17:25;10.70;99.90
40153;DHT22;26371;56.992;23.912;2023-05-19T06:19:56;10.70;99.90
40153;DHT22;26371;56.992;23.912;2023-05-19T06:22:24;10.80;99.90
40153;DHT22;26371;56.992;23.912;2023-05-19T06:24:56;10.70;99.90
40153;DHT22;26371;56.992;23.912;2023-05-19T06:27:24;10.70;99.90
40153;DHT22;26371;56.992;23.912;2023-05-19T06:29:53;10.60;99.90
40153;DHT22;26371;56.992;23.912;2023-05-19T06:32:22;10.70;99.90
40153;DHT22;26371;56.992;23.912;2023-05-19T06:34:51;10.70;99.90
40153;DHT22;26371;56.992;23.912;2023-05-19T06:37:21;10.80;99.90
40153;DHT22;26371;56.992;23.912;2023-05-19T06:39:50;10.90;99.90
40153;DHT22;26371;56.992;23.912;2023-05-19T06:42:20;10.80;99.90
40153;DHT22;26371;56.992;23.912;2023-05-19T06:45:10;10.90;99.90
40153;DHT22;26371;56.992;23.912;2023-05-19T06:47:38;10.70;99.90
40153;DHT22;26371;56.992;23.912;2023-05-19T06:50:08;10.60;99.90
40153;DHT22;26371;56.992;23.912;2023-05-19T06:52:40;10.70;99.90
40153;DHT22;26371;56.992;23.912;2023-05-19T06:55:08;10.70;99.90
40153;DHT22;26371;56.992;23.912;2023-05-19T06:57:39;10.70;99.90
40153;DHT22;26371;56.992;23.912;2023-05-19T07:00:08;10.70;99.90
40153;DHT22;26371;56.992;23.912;2023-05-19T07:02:42;10.70;99.90
40153;DHT22;26371;56.992;23.912;2023-05-19T07:05:12;10.70;99.90
40153;DHT22;26371;56.992;23.912;2023-05-19T07:07:48;10.70;99.90
40153;DHT22;26371;56.992;23.912;2023-05-19T07:10:20;10.70;99.90
40153;DHT22;26371;56.992;23.912;2023-05-19T07:12:51;10.70;99.90
40153;DHT22;26371;56.992;23.912;2023-05-19T07:15:22;10.80;99.90
40153;DHT22;26371;56.992;23.912;2023-05-19T07:17:50;10.80;99.90
40153;DHT22;26371;56.992;23.912;2023-05-19T07:20:19;10.60;99.90
40153;DHT22;26371;56.992;23.912;2023-05-19T07:22:48;10.60;99.90
40153;DHT22;26371;56.992;23.912;2023-05-19T07:25:16;10.60;99.90
40153;DHT22;26371;56.992;23.912;2023-05-19T07:27:46;10.80;99.90
40153;DHT22;26371;56.992;23.912;2023-05-19T07:30:16;10.90;99.90
40153;DHT22;26371;56.992;23.912;2023-05-19T07:32:44;10.80;99.90
40153;DHT22;26371;56.992;23.912;2023-05-19T07:35:12;10.80;99.90
40153;DHT22;26371;56.992;23.912;2023-05-19T07:37:41;10.80;99.90
40153;DHT22;26371;56.992;23.912;2023-05-19T07:40:09;10.90;99.90
40153;DHT22;26371;56.992;23.912;2023-05-19T07:42:38;10.90;99.90
40153;DHT22;26371;56.992;23.912;2023-05-19T07:45:07;11.00;99.90
40153;DHT22;26371;56.992;23.912;2023-05-19T07:47:37;11.10;99.90
40153;DHT22;26371;56.992;23.912;2023-05-19T07:50:06;11.10;99.90
40153;DHT22;26371;56.992;23.912;2023-05-19T07:52:35;11.10;99.90
40153;DHT22;26371;56.992;23.912;2023-05-19T07:55:03;11.10;99.90
40153;DHT22;26371;56.992;23.912;2023-05-19T07:57:32;11.10;99.90
40153;DHT22;26371;56.992;23.912;2023-05-19T08:00:01;10.90;99.90
40153;DHT22;26371;56.992;23.912;2023-05-19T08:02:38;10.90;99.90
40153;DHT22;26371;56.992;23.912;2023-05-19T08:05:07;11.00;99.90
40153;DHT22;26371;56.992;23.912;2023-05-19T08:07:36;11.00;99.90
40153;DHT22;26371;56.992;23.912;2023-05-19T08:10:05;11.10;99.90
40153;DHT22;26371;56.992;23.912;2023-05-19T08:12:33;11.10;99.90
40153;DHT22;26371;56.992;23.912;2023-05-19T08:15:02;11.20;99.90
40153;DHT22;26371;56.992;23.912;2023-05-19T08:17:30;11.30;99.90
40153;DHT22;26371;56.992;23.912;2023-05-19T08:20:00;11.40;99.90
40153;DHT22;26371;56.992;23.912;2023-05-19T08:22:31;11.40;99.90
40153;DHT22;26371;56.992;23.912;2023-05-19T08:24:59;11.30;99.90
40153;DHT22;26371;56.992;23.912;2023-05-19T08:27:28;11.30;99.90
40153;DHT22;26371;56.992;23.912;2023-05-19T08:29:56;11.30;99.90
40153;DHT22;26371;56.992;23.912;2023-05-19T08:32:25;11.30;99.90
40153;DHT22;26371;56.992;23.912;2023-05-19T08:34:53;11.30;99.90
40153;DHT22;26371;56.992;23.912;2023-05-19T08:37:23;11.40;99.90
40153;DHT22;26371;56.992;23.912;2023-05-19T08:39:51;11.40;99.90
40153;DHT22;26371;56.992;23.912;2023-05-19T08:42:20;11.50;99.90
40153;DHT22;26371;56.992;23.912;2023-05-19T08:44:48;11.60;99.90
40153;DHT22;26371;56.992;23.912;2023-05-19T08:47:17;11.70;99.90
40153;DHT22;26371;56.992;23.912;2023-05-19T08:49:46;11.70;99.90
40153;DHT22;26371;56.992;23.912;2023-05-19T08:52:20;11.90;99.90
40153;DHT22;26371;56.992;23.912;2023-05-19T08:54:54;11.90;99.90
40153;DHT22;26371;56.992;23.912;2023-05-19T08:57:26;11.90;99.90
40153;DHT22;26371;56.992;23.912;2023-05-19T08:59:55;11.80;99.90
40153;DHT22;26371;56.992;23.912;2023-05-19T09:02:24;12.00;99.90
40153;DHT22;26371;56.992;23.912;2023-05-19T09:04:53;12.10;99.90
40153;DHT22;26371;56.992;23.912;2023-05-19T09:07:24;12.20;99.90
40153;DHT22;26371;56.992;23.912;2023-05-19T09:09:54;12.30;99.90
40153;DHT22;26371;56.992;23.912;2023-05-19T09:12:22;12.30;99.90
40153;DHT22;26371;56.992;23.912;2023-05-19T09:14:50;12.20;99.90
40153;DHT22;26371;56.992;23.912;2023-05-19T09:17:19;12.20;99.90
40153;DHT22;26371;56.992;23.912;2023-05-19T09:19:47;12.20;99.90
40153;DHT22;26371;56.992;23.912;2023-05-19T09:22:16;12.10;99.90
40153;DHT22;26371;56.992;23.912;2023-05-19T09:24:46;12.20;99.90
40153;DHT22;26371;56.992;23.912;2023-05-19T09:27:17;12.40;99.90
40153;DHT22;26371;56.992;23.912;2023-05-19T09:29:48;12.60;99.90
40153;DHT22;26371;56.992;23.912;2023-05-19T09:32:22;12.80;99.90
40153;DHT22;26371;56.992;23.912;2023-05-19T09:34:52;12.60;98.80
40153;DHT22;26371;56.992;23.912;2023-05-19T09:37:21;12.40;98.90
40153;DHT22;26371;56.992;23.912;2023-05-19T09:39:49;12.30;99.30
40153;DHT22;26371;56.992;23.912;2023-05-19T09:42:24;12.40;98.70
40153;DHT22;26371;56.992;23.912;2023-05-19T09:44:57;12.50;98.80
40153;DHT22;26371;56.992;23.912;2023-05-19T09:47:26;12.50;99.00
40153;DHT22;26371;56.992;23.912;2023-05-19T09:49:54;12.60;99.30
40153;DHT22;26371;56.992;23.912;2023-05-19T09:52:24;12.70;99.00
40153;DHT22;26371;56.992;23.912;2023-05-19T09:54:53;12.70;99.50
40153;DHT22;26371;56.992;23.912;2023-05-19T09:57:25;12.70;99.40
40153;DHT22;26371;56.992;23.912;2023-05-19T09:59:54;12.70;99.10
40153;DHT22;26371;56.992;23.912;2023-05-19T10:02:24;12.60;99.90
40153;DHT22;26371;56.992;23.912;2023-05-19T10:04:53;12.60;99.90
40153;DHT22;26371;56.992;23.912;2023-05-19T10:07:24;12.60;99.90
40153;DHT22;26371;56.992;23.912;2023-05-19T10:09:52;12.70;99.70
40153;DHT22;26371;56.992;23.912;2023-05-19T10:12:25;12.80;99.60
40153;DHT22;26371;56.992;23.912;2023-05-19T10:14:53;12.80;99.90
40153;DHT22;26371;56.992;23.912;2023-05-19T10:17:23;13.00;99.90
40153;DHT22;26371;56.992;23.912;2023-05-19T10:19:52;13.10;99.90
40153;DHT22;26371;56.992;23.912;2023-05-19T10:22:21;13.00;99.30
40153;DHT22;26371;56.992;23.912;2023-05-19T10:24:50;12.90;99.00
40153;DHT22;26371;56.992;23.912;2023-05-19T10:27:18;12.70;99.90
40153;DHT22;26371;56.992;23.912;2023-05-19T10:29:48;12.80;99.90
40153;DHT22;26371;56.992;23.912;2023-05-19T10:32:18;12.90;99.90
40153;DHT22;26371;56.992;23.912;2023-05-19T10:35:01;12.90;99.90
40153;DHT22;26371;56.992;23.912;2023-05-19T10:37:40;13.00;99.70
40153;DHT22;26371;56.992;23.912;2023-05-19T10:40:15;13.10;99.60
40153;DHT22;26371;56.992;23.912;2023-05-19T10:42:50;13.30;99.90
40153;DHT22;26371;56.992;23.912;2023-05-19T10:45:22;13.50;99.90
40153;DHT22;26371;56.992;23.912;2023-05-19T10:47:54;13.40;99.50
40153;DHT22;26371;56.992;23.912;2023-05-19T10:50:22;13.60;99.60
40153;DHT22;26371;56.992;23.912;2023-05-19T10:52:51;13.60;99.90
40153;DHT22;26371;56.992;23.912;2023-05-19T10:58:03;13.60;99.50
40153;DHT22;26371;56.992;23.912;2023-05-19T11:00:33;13.30;99.90
40153;DHT22;26371;56.992;23.912;2023-05-19T11:03:11;13.30;99.90
40153;DHT22;26371;56.992;23.912;2023-05-19T11:05:40;13.50;99.90
40153;DHT22;26371;56.992;23.912;2023-05-19T11:08:11;13.50;99.90
40153;DHT22;26371;56.992;23.912;2023-05-19T11:10:42;13.50;99.90
40153;DHT22;26371;56.992;23.912;2023-05-19T11:13:17;13.50;99.90
40153;DHT22;26371;56.992;23.912;2023-05-19T11:15:47;13.40;99.60
40153;DHT22;26371;56.992;23.912;2023-05-19T11:18:18;13.20;99.90
40153;DHT22;26371;56.992;23.912;2023-05-19T11:20:50;13.20;99.90
40153;DHT22;26371;56.992;23.912;2023-05-19T11:23:24;13.30;99.50
40153;DHT22;26371;56.992;23.912;2023-05-19T11:25:52;13.50;99.90
40153;DHT22;26371;56.992;23.912;2023-05-19T11:28:21;13.70;99.80
40153;DHT22;26371;56.992;23.912;2023-05-19T11:30:54;13.70;98.50
40153;DHT22;26371;56.992;23.912;2023-05-19T11:33:24;13.70;99.20
40153;DHT22;26371;56.992;23.912;2023-05-19T11:35:54;13.40;99.90
40153;DHT22;26371;56.992;23.912;2023-05-19T11:38:24;13.40;99.60
40153;DHT22;26371;56.992;23.912;2023-05-19T11:40:54;13.40;99.60
40153;DHT22;26371;56.992;23.912;2023-05-19T11:43:23;13.60;99.90
40153;DHT22;26371;56.992;23.912;2023-05-19T11:45:53;13.60;99.80
40153;DHT22;26371;56.992;23.912;2023-05-19T11:48:22;13.80;99.60
40153;DHT22;26371;56.992;23.912;2023-05-19T11:50:51;14.00;99.30
40153;DHT22;26371;56.992;23.912;2023-05-19T11:53:20;13.90;98.20
40153;DHT22;26371;56.992;23.912;2023-05-19T11:55:49;13.80;99.80
40153;DHT22;26371;56.992;23.912;2023-05-19T11:58:18;13.90;99.10
40153;DHT22;26371;56.992;23.912;2023-05-19T12:00:53;13.70;98.30
40153;DHT22;26371;56.992;23.912;2023-05-19T12:03:22;13.50;98.80
40153;DHT22;26371;56.992;23.912;2023-05-19T12:05:54;13.30;98.50
40153;DHT22;26371;56.992;23.912;2023-05-19T12:08:23;13.30;99.50
40153;DHT22;26371;56.992;23.912;2023-05-19T12:10:53;13.50;99.60
40153;DHT22;26371;56.992;23.912;2023-05-19T12:13:22;13.70;99.50
40153;DHT22;26371;56.992;23.912;2023-05-19T12:15:50;13.80;99.10
40153;DHT22;26371;56.992;23.912;2023-05-19T12:18:20;13.90;99.80
40153;DHT22;26371;56.992;23.912;2023-05-19T12:20:49;13.80;99.90
40153;DHT22;26371;56.992;23.912;2023-05-19T12:23:17;14.00;99.90
40153;DHT22;26371;56.992;23.912;2023-05-19T12:25:46;14.00;99.90
40153;DHT22;26371;56.992;23.912;2023-05-19T12:28:15;14.00;99.90
40153;DHT22;26371;56.992;23.912;2023-05-19T12:30:46;14.00;99.90
40153;DHT22;26371;56.992;23.912;2023-05-19T12:33:14;14.00;99.90
40153;DHT22;26371;56.992;23.912;2023-05-19T12:35:44;14.00;99.90
40153;DHT22;26371;56.992;23.912;2023-05-19T12:38:13;13.80;99.90
40153;DHT22;26371;56.992;23.912;2023-05-19T12:40:42;13.40;99.90
40153;DHT22;26371;56.992;23.912;2023-05-19T12:43:17;13.40;99.90
40153;DHT22;26371;56.992;23.912;2023-05-19T12:45:46;13.50;99.90
40153;DHT22;26371;56.992;23.912;2023-05-19T12:48:14;13.30;99.90
40153;DHT22;26371;56.992;23.912;2023-05-19T12:50:44;13.20;99.90
40153;DHT22;26371;56.992;23.912;2023-05-19T12:53:13;13.40;99.90
40153;DHT22;26371;56.992;23.912;2023-05-19T12:55:42;13.30;99.90
40153;DHT22;26371;56.992;23.912;2023-05-19T12:58:11;13.30;99.90
40153;DHT22;26371;56.992;23.912;2023-05-19T13:00:40;13.30;99.90
40153;DHT22;26371;56.992;23.912;2023-05-19T13:03:13;13.30;99.90
40153;DHT22;26371;56.992;23.912;2023-05-19T13:05:43;13.20;99.90
40153;DHT22;26371;56.992;23.912;2023-05-19T13:08:14;13.20;99.90
40153;DHT22;26371;56.992;23.912;2023-05-19T13:10:43;13.30;99.90
40153;DHT22;26371;56.992;23.912;2023-05-19T13:13:12;13.30;99.90
40153;DHT22;26371;56.992;23.912;2023-05-19T13:15:41;13.30;99.90
40153;DHT22;26371;56.992;23.912;2023-05-19T13:18:10;13.30;99.90
40153;DHT22;26371;56.992;23.912;2023-05-19T13:20:39;13.20;99.90
40153;DHT22;26371;56.992;23.912;2023-05-19T13:23:08;13.10;99.90
40153;DHT22;26371;56.992;23.912;2023-05-19T13:25:39;13.20;99.90
40153;DHT22;26371;56.992;23.912;2023-05-19T13:28:08;13.30;99.90
40153;DHT22;26371;56.992;23.912;2023-05-19T13:30:37;13.30;99.90
40153;DHT22;26371;56.992;23.912;2023-05-19T13:33:06;13.40;99.90
40153;DHT22;26371;56.992;23.912;2023-05-19T13:35:35;13.40;99.90
40153;DHT22;26371;56.992;23.912;2023-05-19T13:38:04;13.50;99.90
40153;DHT22;26371;56.992;23.912;2023-05-19T13:40:33;13.50;99.90
40153;DHT22;26371;56.992;23.912;2023-05-19T13:43:03;13.50;99.90
40153;DHT22;26371;56.992;23.912;2023-05-19T13:45:33;13.50;99.90
40153;DHT22;26371;56.992;23.912;2023-05-19T13:48:01;13.50;99.90
40153;DHT22;26371;56.992;23.912;2023-05-19T13:50:30;13.50;99.90
40153;DHT22;26371;56.992;23.912;2023-05-19T13:53:00;13.50;99.90
40153;DHT22;26371;56.992;23.912;2023-05-19T13:55:29;13.50;99.90
40153;DHT22;26371;56.992;23.912;2023-05-19T13:57:58;13.50;99.90
40153;DHT22;26371;56.992;23.912;2023-05-19T14:00:28;13.50;99.90
40153;DHT22;26371;56.992;23.912;2023-05-19T14:02:56;13.50;99.90
40153;DHT22;26371;56.992;23.912;2023-05-19T14:05:26;13.50;99.90
40153;DHT22;26371;56.992;23.912;2023-05-19T14:07:55;13.40;99.90
40153;DHT22;26371;56.992;23.912;2023-05-19T14:10:24;13.60;99.90
40153;DHT22;26371;56.992;23.912;2023-05-19T14:12:52;13.70;99.90
40153;DHT22;26371;56.992;23.912;2023-05-19T14:15:42;13.80;99.90
40153;DHT22;26371;56.992;23.912;2023-05-19T14:18:10;13.70;99.90
40153;DHT22;26371;56.992;23.912;2023-05-19T14:20:39;13.70;99.90
40153;DHT22;26371;56.992;23.912;2023-05-19T14:23:07;13.70;99.90
40153;DHT22;26371;56.992;23.912;2023-05-19T14:25:36;13.50;99.90
40153;DHT22;26371;56.992;23.912;2023-05-19T14:28:04;13.50;99.90
40153;DHT22;26371;56.992;23.912;2023-05-19T14:30:32;13.40;99.90
40153;DHT22;26371;56.992;23.912;2023-05-19T14:33:03;13.40;99.90
40153;DHT22;26371;56.992;23.912;2023-05-19T14:35:32;13.40;99.90
40153;DHT22;26371;56.992;23.912;2023-05-19T14:38:00;13.30;99.90
40153;DHT22;26371;56.992;23.912;2023-05-19T14:40:28;13.20;99.90
40153;DHT22;26371;56.992;23.912;2023-05-19T14:42:57;13.20;99.90
40153;DHT22;26371;56.992;23.912;2023-05-19T14:45:26;13.20;99.90
40153;DHT22;26371;56.992;23.912;2023-05-19T14:47:54;13.10;99.90
40153;DHT22;26371;56.992;23.912;2023-05-19T14:50:24;13.20;99.90
40153;DHT22;26371;56.992;23.912;2023-05-19T14:52:55;13.30;99.90
40153;DHT22;26371;56.992;23.912;2023-05-19T14:55:28;13.30;99.90
40153;DHT22;26371;56.992;23.912;2023-05-19T14:57:57;13.40;99.90
40153;DHT22;26371;56.992;23.912;2023-05-19T15:00:25;13.50;99.90
40153;DHT22;26371;56.992;23.912;2023-05-19T15:02:53;13.40;99.90
40153;DHT22;26371;56.992;23.912;2023-05-19T15:05:22;13.50;99.90
40153;DHT22;26371;56.992;23.912;2023-05-19T15:07:52;13.60;99.90
40153;DHT22;26371;56.992;23.912;2023-05-19T15:10:20;13.60;99.90
40153;DHT22;26371;56.992;23.912;2023-05-19T15:12:50;13.70;99.90
40153;DHT22;26371;56.992;23.912;2023-05-19T15:15:19;13.70;99.90
40153;DHT22;26371;56.992;23.912;2023-05-19T15:17:47;13.60;99.90
40153;DHT22;26371;56.992;23.912;2023-05-19T15:20:16;13.60;99.90
40153;DHT22;26371;56.992;23.912;2023-05-19T15:22:44;13.50;99.90
40153;DHT22;26371;56.992;23.912;2023-05-19T15:25:14;13.30;99.90
40153;DHT22;26371;56.992;23.912;2023-05-19T15:27:43;13.20;99.90
40153;DHT22;26371;56.992;23.912;2023-05-19T15:30:12;13.10;99.90
40153;DHT22;26371;56.992;23.912;2023-05-19T15:32:40;13.30;99.90
40153;DHT22;26371;56.992;23.912;2023-05-19T15:35:09;13.40;99.90
40153;DHT22;26371;56.992;23.912;2023-05-19T15:37:37;13.50;99.90
40153;DHT22;26371;56.992;23.912;2023-05-19T15:40:06;13.60;99.90
40153;DHT22;26371;56.992;23.912;2023-05-19T15:42:36;13.70;99.90
40153;DHT22;26371;56.992;23.912;2023-05-19T15:45:05;13.80;99.90
40153;DHT22;26371;56.992;23.912;2023-05-19T15:47:34;13.90;99.90
40153;DHT22;26371;56.992;23.912;2023-05-19T15:50:03;13.90;99.90
40153;DHT22;26371;56.992;23.912;2023-05-19T15:52:31;13.90;99.90
40153;DHT22;26371;56.992;23.912;2023-05-19T15:55:00;13.80;99.90
40153;DHT22;26371;56.992;23.912;2023-05-19T15:57:29;13.70;99.90
40153;DHT22;26371;56.992;23.912;2023-05-19T15:59:59;13.60;99.90
40153;DHT22;26371;56.992;23.912;2023-05-19T16:02:27;13.50;99.90